Time;durP1;ratioP1;P1;durP2;ratioP2;P2;SDS_P1;SDS_P2;PMS_P1;PMS_P2;Temp;Humidity;BMP_temperature;BMP_pressure;BME280_temperature;BME280_humidity;BME280_pressure;Samples;Min_cycle;Max_cycle;Signal;HPM_P1;HPM_P2
2021/10/28 00:13:38;;;;;;;8.35;7.53;;;7.40;99.90;;;;;;5140440;27;20293;-78
2021/10/28 00:16:12;;;;;;;11.10;8.00;;;7.30;99.90;;;;;;5155891;27;20211;-76
2021/10/28 00:18:41;;;;;;;10.32;7.90;;;7.30;99.90;;;;;;5154618;27;20297;-78
2021/10/28 00:21:10;;;;;;;12.48;8.50;;;7.30;99.90;;;;;;5149557;27;20207;-77
2021/10/28 00:23:45;;;;;;;10.27;7.10;;;7.20;99.90;;;;;;5139651;27;20254;-78
2021/10/28 00:26:13;;;;;;;12.32;8.80;;;7.20;99.90;;;;;;5138963;27;20214;-77
2021/10/28 00:28:40;;;;;;;9.13;8.13;;;7.20;99.90;;;;;;5142038;27;20207;-78
2021/10/28 00:31:08;;;;;;;9.70;8.07;;;7.20;99.90;;;;;;5137496;27;20211;-78
2021/10/28 00:33:36;;;;;;;9.02;8.07;;;7.20;99.90;;;;;;5137540;27;20254;-77
2021/10/28 00:36:04;;;;;;;10.77;8.90;;;7.10;99.90;;;;;;5135769;27;20231;-79
2021/10/28 00:38:33;;;;;;;10.30;8.82;;;7.10;99.90;;;;;;5135634;27;20253;-77
2021/10/28 00:41:01;;;;;;;8.80;7.90;;;7.10;99.90;;;;;;5135586;27;20203;-78
2021/10/28 00:43:29;;;;;;;9.70;8.15;;;7.10;99.90;;;;;;5136191;27;20199;-78
2021/10/28 00:45:56;;;;;;;8.90;8.00;;;7.10;99.90;;;;;;5137145;27;20263;-77
2021/10/28 00:48:23;;;;;;;8.77;7.93;;;7.10;99.90;;;;;;5135856;27;20208;-78
2021/10/28 00:50:53;;;;;;;9.98;8.20;;;7.10;99.90;;;;;;5135910;27;20453;-78
2021/10/28 00:53:22;;;;;;;8.90;7.50;;;7.10;99.90;;;;;;5139282;27;20203;-77
2021/10/28 00:55:52;;;;;;;8.73;7.65;;;7.00;99.90;;;;;;5144014;27;20233;-77
2021/10/28 00:58:22;;;;;;;8.80;7.45;;;7.00;99.90;;;;;;5135574;28;20208;-77
2021/10/28 01:00:50;;;;;;;10.60;8.20;;;7.00;99.90;;;;;;5137486;27;20214;-77
2021/10/28 01:03:17;;;;;;;9.25;7.10;;;6.90;99.90;;;;;;5141390;27;20284;-76
2021/10/28 01:05:44;;;;;;;10.18;7.05;;;6.90;99.90;;;;;;5143149;27;20238;-77
2021/10/28 01:08:15;;;;;;;10.10;8.20;;;6.90;99.90;;;;;;5142751;27;20204;-77
2021/10/28 01:10:43;;;;;;;8.82;7.75;;;6.90;99.90;;;;;;5134360;27;20638;-77
2021/10/28 01:13:11;;;;;;;9.45;7.07;;;6.90;99.90;;;;;;5133781;27;20192;-77
2021/10/28 01:15:38;;;;;;;10.43;8.40;;;6.90;99.90;;;;;;5134077;27;20610;-77
2021/10/28 01:18:08;;;;;;;11.10;8.05;;;6.90;99.90;;;;;;5134210;27;20213;-77
2021/10/28 01:20:37;;;;;;;8.98;7.82;;;6.80;99.90;;;;;;5144545;27;20291;-77
2021/10/28 01:23:04;;;;;;;10.43;7.90;;;6.80;99.90;;;;;;5135109;27;20200;-77
2021/10/28 01:25:33;;;;;;;8.82;7.75;;;6.70;99.90;;;;;;5135239;27;20292;-77
2021/10/28 01:28:00;;;;;;;8.40;7.60;;;6.70;99.90;;;;;;5134455;27;20239;-77
2021/10/28 01:30:27;;;;;;;9.85;8.20;;;6.70;99.90;;;;;;5139223;27;20227;-77
2021/10/28 01:32:54;;;;;;;9.45;8.45;;;6.70;99.90;;;;;;5142372;27;20287;-77
2021/10/28 01:35:21;;;;;;;9.02;8.07;;;6.60;99.90;;;;;;5137680;28;20326;-76
2021/10/28 01:37:50;;;;;;;9.55;8.15;;;6.70;99.90;;;;;;5139648;27;20204;-77
2021/10/28 01:40:18;;;;;;;11.82;7.65;;;6.60;99.90;;;;;;5144828;27;20199;-77
2021/10/28 01:42:49;;;;;;;8.82;7.05;;;6.60;99.90;;;;;;5144320;27;20568;-77
2021/10/28 01:45:16;;;;;;;9.93;8.18;;;6.50;99.90;;;;;;5143656;27;20699;-77
2021/10/28 01:47:43;;;;;;;9.40;8.25;;;6.50;99.90;;;;;;5143129;27;20208;-77
2021/10/28 01:50:11;;;;;;;10.73;8.57;;;6.50;99.90;;;;;;5145155;27;20231;-76
2021/10/28 01:52:39;;;;;;;12.35;9.30;;;6.40;99.90;;;;;;5147414;27;20219;-77
2021/10/28 01:55:10;;;;;;;13.93;9.52;;;6.40;99.90;;;;;;5139243;27;20227;-76
2021/10/28 01:57:38;;;;;;;17.13;10.77;;;6.40;99.90;;;;;;5140856;27;20239;-77
2021/10/28 02:00:06;;;;;;;17.95;10.98;;;6.30;99.90;;;;;;5140980;27;20232;-77
2021/10/28 02:02:33;;;;;;;11.82;8.65;;;6.30;99.90;;;;;;5143944;27;20210;-76
2021/10/28 02:04:59;;;;;;;12.45;9.15;;;6.20;99.90;;;;;;5143165;27;20601;-77
2021/10/28 02:07:26;;;;;;;9.88;8.88;;;6.10;99.90;;;;;;5141157;27;20265;-77
2021/10/28 02:09:53;;;;;;;9.75;8.27;;;6.10;99.90;;;;;;5138403;27;20216;-77
2021/10/28 02:12:22;;;;;;;15.27;8.75;;;6.10;99.90;;;;;;5137735;27;20310;-77
2021/10/28 02:14:48;;;;;;;11.05;8.85;;;6.00;99.90;;;;;;5139184;27;20224;-77
2021/10/28 02:17:15;;;;;;;14.57;9.05;;;6.00;99.90;;;;;;5139467;27;20214;-77
2021/10/28 02:19:42;;;;;;;13.40;9.68;;;5.90;99.90;;;;;;5140394;27;20232;-76
2021/10/28 02:22:09;;;;;;;12.05;9.50;;;6.00;99.90;;;;;;5142612;27;20331;-77
2021/10/28 02:24:36;;;;;;;11.52;10.10;;;6.00;99.90;;;;;;5142423;27;20223;-77
2021/10/28 02:27:03;;;;;;;11.88;10.23;;;5.90;99.90;;;;;;5142507;27;20291;-77
2021/10/28 02:29:31;;;;;;;15.35;10.43;;;5.90;99.90;;;;;;5137273;27;20565;-77
2021/10/28 02:31:58;;;;;;;11.77;9.80;;;5.90;99.90;;;;;;5141027;27;20249;-77
2021/10/28 02:34:25;;;;;;;11.60;9.90;;;5.80;99.90;;;;;;5143301;27;20288;-76
2021/10/28 02:36:52;;;;;;;14.45;9.80;;;5.80;99.90;;;;;;5142727;27;20215;-77
2021/10/28 02:39:19;;;;;;;12.40;9.98;;;5.80;99.90;;;;;;5146668;27;20267;-77
2021/10/28 02:41:46;;;;;;;13.98;9.93;;;5.70;99.90;;;;;;5150808;27;20290;-75
2021/10/28 02:44:13;;;;;;;15.88;9.98;;;5.70;99.90;;;;;;5150699;27;20262;-76
2021/10/28 02:46:42;;;;;;;14.10;10.23;;;5.70;99.90;;;;;;5148503;27;20290;-74
2021/10/28 02:49:13;;;;;;;13.45;10.23;;;5.70;99.90;;;;;;5149198;27;20207;-77
2021/10/28 02:51:40;;;;;;;11.85;9.55;;;5.70;99.90;;;;;;5143941;27;20212;-77
2021/10/28 02:54:07;;;;;;;12.20;9.60;;;5.60;99.90;;;;;;5147968;27;20230;-77
2021/10/28 02:56:34;;;;;;;12.85;9.93;;;5.60;99.90;;;;;;5149597;27;20243;-76
2021/10/28 02:59:01;;;;;;;13.38;10.52;;;5.60;99.90;;;;;;5147348;27;20272;-76
2021/10/28 03:01:28;;;;;;;11.70;9.55;;;5.60;99.90;;;;;;5137115;27;20200;-76
2021/10/28 03:03:56;;;;;;;12.70;9.60;;;5.60;99.90;;;;;;5160256;22;20231;-76
2021/10/28 03:06:23;;;;;;;11.13;9.30;;;5.60;99.90;;;;;;5139774;27;20233;-78
2021/10/28 03:08:51;;;;;;;15.50;10.48;;;5.60;99.90;;;;;;5139584;27;20208;-79
2021/10/28 03:11:18;;;;;;;12.32;8.93;;;5.50;99.90;;;;;;5141849;27;20242;-79
2021/10/28 03:13:48;;;;;;;12.88;9.27;;;5.50;99.90;;;;;;5140426;27;20198;-78
2021/10/28 03:16:25;;;;;;;11.38;9.27;;;5.40;99.90;;;;;;5147155;27;20205;-77
2021/10/28 03:32:22;;;;;;;13.35;9.85;;;5.30;99.90;;;;;;5158969;27;20529;-79
2021/10/28 03:34:49;;;;;;;11.43;8.77;;;5.30;99.90;;;;;;5155166;27;20270;-79
2021/10/28 03:37:19;;;;;;;17.95;9.38;;;5.30;99.90;;;;;;5154512;27;20200;-80
2021/10/28 03:40:05;;;;;;;11.43;9.68;;;5.30;99.90;;;;;;5155560;27;20252;-79
2021/10/28 03:59:18;;;;;;;16.60;9.48;;;5.10;99.90;;;;;;5055449;28;20206;-78
2021/10/28 04:18:41;;;;;;;9.88;8.13;;;5.10;99.90;;;;;;5071924;28;20190;-79
2021/10/28 04:21:24;;;;;;;10.95;6.90;;;5.10;99.90;;;;;;5072377;28;20226;-78
2021/10/28 04:29:20;;;;;;;10.10;7.05;;;5.10;99.90;;;;;;5075179;28;20248;-80
2021/10/28 04:31:47;;;;;;;9.93;7.63;;;5.00;99.90;;;;;;5068780;28;20203;-78
2021/10/28 04:34:14;;;;;;;15.55;7.15;;;4.90;99.90;;;;;;5074466;28;20281;-78
2021/10/28 04:36:42;;;;;;;8.68;6.97;;;4.90;99.90;;;;;;5078963;28;20659;-79
2021/10/28 04:39:10;;;;;;;14.18;7.20;;;5.00;99.90;;;;;;5079116;28;20296;-79
2021/10/28 04:41:38;;;;;;;10.40;7.75;;;5.00;99.90;;;;;;5078067;28;20320;-78
2021/10/28 04:44:08;;;;;;;13.55;8.65;;;5.10;99.90;;;;;;5080385;28;20267;-79
2021/10/28 04:46:35;;;;;;;8.30;6.68;;;5.20;99.90;;;;;;5080137;28;20255;-79
2021/10/28 04:49:03;;;;;;;10.43;7.72;;;5.30;99.90;;;;;;5087931;28;20202;-79
2021/10/28 04:51:29;;;;;;;8.25;7.05;;;5.30;99.90;;;;;;5093025;28;20209;-78
2021/10/28 04:53:58;;;;;;;9.77;6.80;;;5.40;99.90;;;;;;5095032;28;20253;-79
2021/10/28 04:56:25;;;;;;;10.05;7.50;;;5.50;99.90;;;;;;5093353;28;20216;-79
2021/10/28 04:58:52;;;;;;;9.02;7.68;;;5.60;99.90;;;;;;5097066;28;20268;-78
2021/10/28 05:01:21;;;;;;;8.48;7.55;;;5.70;99.90;;;;;;5094230;28;20226;-79
2021/10/28 05:03:48;;;;;;;15.38;9.00;;;5.70;99.90;;;;;;5092801;28;20205;-79
2021/10/28 05:06:15;;;;;;;10.18;8.57;;;5.70;99.90;;;;;;5093346;28;20206;-79
2021/10/28 05:08:42;;;;;;;9.15;7.70;;;5.70;99.90;;;;;;5095372;28;20197;-79
2021/10/28 05:11:10;;;;;;;9.88;8.15;;;5.80;99.90;;;;;;5097336;28;20209;-79
2021/10/28 05:13:37;;;;;;;7.72;6.38;;;5.90;99.90;;;;;;5097430;28;20217;-79
2021/10/28 05:16:05;;;;;;;6.72;6.00;;;6.00;99.90;;;;;;5095198;28;20205;-79
2021/10/28 05:18:39;;;;;;;6.82;6.10;;;6.00;99.90;;;;;;5094576;28;20207;-80
2021/10/28 05:21:06;;;;;;;8.32;6.68;;;6.10;99.90;;;;;;5088936;28;20684;-76
2021/10/28 05:23:33;;;;;;;7.95;6.15;;;6.10;99.90;;;;;;5095394;28;20261;-79
2021/10/28 05:26:00;;;;;;;8.70;5.95;;;6.20;99.90;;;;;;5093297;28;20206;-78
2021/10/28 05:28:29;;;;;;;6.97;5.80;;;6.20;99.90;;;;;;5094857;28;20215;-79
2021/10/28 05:30:56;;;;;;;9.15;5.55;;;6.10;99.90;;;;;;5093848;28;20209;-79
2021/10/28 05:33:23;;;;;;;7.68;6.00;;;6.20;99.90;;;;;;5093520;28;20205;-78
2021/10/28 05:35:50;;;;;;;9.38;5.60;;;6.20;99.90;;;;;;5093976;28;20226;-78
2021/10/28 05:38:16;;;;;;;7.63;5.13;;;6.40;99.90;;;;;;5096880;28;20210;-79
2021/10/28 05:40:44;;;;;;;6.13;5.32;;;6.40;99.90;;;;;;5098246;28;20286;-78
2021/10/28 05:43:11;;;;;;;7.25;4.70;;;6.40;99.90;;;;;;5097663;28;20223;-79
2021/10/28 05:45:39;;;;;;;8.55;4.85;;;6.30;99.90;;;;;;5099132;28;20213;-80
2021/10/28 05:48:07;;;;;;;5.63;4.70;;;6.40;99.90;;;;;;5090069;28;20190;-80
2021/10/28 05:50:33;;;;;;;5.88;4.90;;;6.40;99.90;;;;;;5092055;28;20206;-79
2021/10/28 05:53:01;;;;;;;13.27;5.57;;;6.50;99.90;;;;;;5094579;28;20267;-79
2021/10/28 05:55:28;;;;;;;11.02;5.45;;;6.50;99.90;;;;;;5097166;28;20230;-79
2021/10/28 05:57:55;;;;;;;8.57;4.63;;;6.40;99.90;;;;;;5095626;28;20203;-79
2021/10/28 06:00:24;;;;;;;6.65;4.80;;;6.40;99.90;;;;;;5096266;28;20270;-79
2021/10/28 06:02:53;;;;;;;5.47;4.53;;;6.40;99.90;;;;;;5088540;28;20212;-80
2021/10/28 06:05:20;;;;;;;7.65;5.00;;;6.50;99.90;;;;;;5094810;28;20220;-80
2021/10/28 06:07:47;;;;;;;6.80;5.10;;;6.40;99.90;;;;;;5098876;28;20228;-79
2021/10/28 06:10:17;;;;;;;7.68;5.40;;;6.50;99.90;;;;;;5098792;28;20204;-80
2021/10/28 06:12:46;;;;;;;7.55;5.78;;;6.50;99.90;;;;;;5086131;28;20213;-79
2021/10/28 06:15:14;;;;;;;6.05;4.90;;;6.60;99.90;;;;;;5077305;28;20288;-78
2021/10/28 06:17:48;;;;;;;9.13;5.93;;;6.70;99.90;;;;;;5079152;28;20214;-79
2021/10/28 06:20:17;;;;;;;11.10;5.65;;;6.70;99.90;;;;;;5078038;28;20644;-79
2021/10/28 06:22:45;;;;;;;9.45;6.30;;;6.80;99.90;;;;;;5079184;28;20207;-78
2021/10/28 06:25:11;;;;;;;10.02;6.07;;;6.90;99.90;;;;;;5078667;28;20287;-78
2021/10/28 06:27:39;;;;;;;9.63;6.43;;;6.80;99.90;;;;;;5077531;28;20207;-79
2021/10/28 06:30:09;;;;;;;9.75;6.55;;;6.80;99.90;;;;;;5078845;28;20216;-78
2021/10/28 06:32:42;;;;;;;14.00;7.63;;;6.90;99.90;;;;;;5089786;28;20202;-79
2021/10/28 06:40:40;;;;;;;13.38;7.07;;;7.20;99.90;;;;;;5343600;22;20247;-78
2021/10/28 06:43:08;;;;;;;17.15;8.65;;;7.20;99.90;;;;;;5019907;28;20661;-78
2021/10/28 06:45:36;;;;;;;14.82;8.70;;;7.20;99.90;;;;;;5018017;28;20341;-77
2021/10/28 06:48:05;;;;;;;28.63;8.82;;;7.30;99.90;;;;;;5017701;28;20231;-79
2021/10/28 06:50:38;;;;;;;22.90;10.35;;;7.40;99.90;;;;;;5018361;28;20226;-79
2021/10/28 06:55:45;;;;;;;25.05;10.38;;;7.50;99.90;;;;;;5043827;28;20684;-77
2021/10/28 07:03:41;;;;;;;21.45;9.70;;;7.30;99.90;;;;;;5053231;28;20230;-76
2021/10/28 07:06:11;;;;;;;27.30;12.10;;;7.40;99.90;;;;;;5053664;28;20211;-77
2021/10/28 07:08:41;;;;;;;25.80;10.93;;;7.40;99.90;;;;;;5048637;28;20227;-76
2021/10/28 07:11:11;;;;;;;27.77;10.98;;;7.50;99.90;;;;;;5036881;28;20688;-76
2021/10/28 07:13:40;;;;;;;33.35;11.50;;;7.50;99.90;;;;;;5035640;28;20736;-77
2021/10/28 07:16:15;;;;;;;25.15;11.70;;;7.50;99.90;;;;;;5036388;28;20205;-76
2021/10/28 07:18:49;;;;;;;25.45;10.63;;;7.60;99.90;;;;;;5036712;28;20691;-75
2021/10/28 07:55:20;;;;;;;24.95;12.50;;;8.10;99.90;;;;;;5037258;28;20329;-75
2021/10/28 07:57:58;;;;;;;26.30;12.63;;;8.10;99.90;;;;;;5037961;28;20199;-77
2021/10/28 08:06:15;;;;;;;27.67;11.93;;;8.00;99.90;;;;;;5038015;28;20247;-76
2021/10/28 08:17:08;;;;;;;24.77;12.13;;;8.40;99.90;;;;;;5040848;28;20198;-75
2021/10/28 08:19:46;;;;;;;25.02;12.95;;;8.50;99.90;;;;;;5041197;28;20217;-75
2021/10/28 08:22:18;;;;;;;24.08;12.52;;;8.40;99.90;;;;;;5042392;28;20281;-75
2021/10/28 08:30:20;;;;;;;21.38;12.32;;;8.10;99.90;;;;;;5040727;28;20193;-76
2021/10/28 08:32:48;;;;;;;22.13;12.43;;;8.00;99.90;;;;;;5041226;28;20193;-77
2021/10/28 08:35:15;;;;;;;21.60;11.88;;;8.10;99.90;;;;;;5039968;28;20662;-78
2021/10/28 08:37:53;;;;;;;20.63;12.32;;;8.40;99.90;;;;;;5041801;28;20213;-76
2021/10/28 08:40:22;;;;;;;22.92;13.35;;;8.50;99.90;;;;;;5042063;28;20701;-75
2021/10/28 08:42:49;;;;;;;22.80;13.60;;;7.90;99.90;;;;;;5042062;28;20234;-76
2021/10/28 08:45:19;;;;;;;25.08;14.15;;;8.00;99.90;;;;;;5043568;28;20296;-77
2021/10/28 08:47:51;;;;;;;25.20;14.30;;;8.10;99.90;;;;;;5040161;28;20217;-75
2021/10/28 08:50:25;;;;;;;26.98;13.18;;;8.00;99.90;;;;;;5039738;28;20717;-77
2021/10/28 08:55:40;;;;;;;24.08;12.85;;;8.20;99.90;;;;;;5021833;28;20209;-76
2021/10/28 09:26:18;;;;;;;19.65;12.23;;;9.90;90.20;;;;;;5049690;28;20210;-76
2021/10/28 09:28:51;;;;;;;21.38;12.25;;;10.10;84.80;;;;;;5055494;28;20213;-76
2021/10/28 09:31:20;;;;;;;20.63;12.82;;;10.00;81.40;;;;;;5054324;28;20215;-77
2021/10/28 09:33:58;;;;;;;20.17;11.52;;;9.60;82.20;;;;;;5044593;28;20231;-77
2021/10/28 09:45:26;;;;;;;18.33;12.48;;;10.10;84.20;;;;;;5036883;28;20229;-76
2021/10/28 09:48:05;;;;;;;17.63;11.55;;;9.90;82.40;;;;;;5037416;28;20302;-77
2021/10/28 09:50:48;;;;;;;18.83;11.82;;;10.20;84.30;;;;;;5037148;28;20210;-75
2021/10/28 09:53:25;;;;;;;16.60;11.38;;;10.70;80.50;;;;;;5036558;28;20211;-77
2021/10/28 09:58:36;;;;;;;17.00;12.10;;;11.20;73.90;;;;;;5037157;28;20649;-76
2021/10/28 10:01:06;;;;;;;17.02;12.65;;;11.60;72.70;;;;;;5038570;28;20208;-76
2021/10/28 10:03:37;;;;;;;18.63;13.40;;;11.60;69.00;;;;;;5043560;28;20227;-77
2021/10/28 10:06:06;;;;;;;21.45;13.20;;;11.80;69.20;;;;;;5041330;28;20230;-76
2021/10/28 10:08:35;;;;;;;20.67;13.10;;;11.80;67.60;;;;;;5040913;28;20211;-76
2021/10/28 10:11:02;;;;;;;16.95;12.40;;;11.60;68.40;;;;;;5037009;28;20206;-76
2021/10/28 10:13:31;;;;;;;17.85;13.60;;;11.20;69.20;;;;;;5037352;28;20322;-76
2021/10/28 10:16:00;;;;;;;18.70;14.00;;;11.50;69.70;;;;;;5036910;28;20302;-76
2021/10/28 10:18:29;;;;;;;21.45;14.00;;;11.60;68.30;;;;;;5037898;28;20211;-75
2021/10/28 10:21:01;;;;;;;20.50;13.85;;;11.60;68.70;;;;;;5036170;28;20577;-75
2021/10/28 10:23:41;;;;;;;23.08;14.48;;;11.70;68.50;;;;;;5037671;28;20234;-76
2021/10/28 10:26:38;;;;;;;19.88;14.07;;;11.80;67.40;;;;;;5038952;28;20195;-76
2021/10/28 11:24:00;;;;;;;26.25;18.45;;;11.10;73.10;;;;;;5021236;28;20238;-76
2021/10/28 11:26:54;;;;;;;25.13;17.95;;;11.10;73.50;;;;;;5042765;28;20656;-77
2021/10/28 11:30:08;;;;;;;25.50;18.00;;;11.00;74.40;;;;;;5039838;28;20199;-78
2021/10/28 12:25:30;;;;;;;24.75;17.30;;;11.90;72.80;;;;;;5045917;28;20619;-77
2021/10/28 12:45:45;;;;;;;22.67;15.18;;;12.30;72.10;;;;;;5037652;28;20190;-76
2021/10/28 12:54:03;;;;;;;20.08;15.30;;;12.40;69.80;;;;;;5036388;28;20246;-76
2021/10/28 13:05:32;;;;;;;20.42;14.55;;;12.50;69.90;;;;;;5037068;28;20211;-76
2021/10/28 13:49:49;;;;;;;19.00;13.77;;;13.10;67.70;;;;;;5038587;28;20206;-77
2021/10/28 13:52:29;;;;;;;21.23;15.32;;;13.10;68.10;;;;;;5038924;28;20209;-76
2021/10/28 13:55:16;;;;;;;19.85;14.13;;;13.20;68.90;;;;;;5041551;28;20241;-76
2021/10/28 14:39:29;;;;;;;16.25;11.55;;;13.50;68.10;;;;;;5105822;28;20233;-77
2021/10/28 15:28:55;;;;;;;25.08;19.27;;;12.70;73.80;;;;;;5113618;28;20258;-76
2021/10/28 15:31:47;;;;;;;21.52;15.25;;;12.60;74.20;;;;;;5115389;28;20206;-76
2021/10/28 15:37:00;;;;;;;22.75;15.35;;;12.40;76.60;;;;;;5109167;28;20255;-76
2021/10/28 15:39:32;;;;;;;26.10;16.98;;;12.30;78.40;;;;;;5111885;28;20213;-75
2021/10/28 16:23:25;;;;;;;27.63;18.83;;;10.80;92.30;;;;;;5096471;28;20224;-76
2021/10/28 16:25:53;;;;;;;25.65;18.73;;;10.80;93.40;;;;;;5096360;28;20276;-75
2021/10/28 16:28:20;;;;;;;27.05;19.30;;;10.70;93.40;;;;;;5096427;28;20207;-76
2021/10/28 16:30:48;;;;;;;24.33;18.35;;;10.70;93.90;;;;;;5096357;28;20229;-76
2021/10/28 16:33:16;;;;;;;25.80;22.20;;;10.60;94.50;;;;;;5104173;28;20221;-76
2021/10/28 16:35:43;;;;;;;29.30;21.63;;;10.50;95.00;;;;;;5098863;28;20252;-75
2021/10/28 16:38:10;;;;;;;25.58;19.65;;;10.50;95.10;;;;;;5097170;28;20573;-77
2021/10/28 16:40:37;;;;;;;28.60;20.50;;;10.40;95.10;;;;;;5095693;28;20291;-76
2021/10/28 16:43:06;;;;;;;26.35;19.92;;;10.30;95.30;;;;;;5094987;28;20694;-77
2021/10/28 16:45:33;;;;;;;31.15;22.00;;;10.30;96.10;;;;;;5095533;28;20747;-76
2021/10/28 16:48:00;;;;;;;33.85;21.10;;;10.30;96.80;;;;;;5096487;28;20276;-75
2021/10/28 16:50:27;;;;;;;28.48;21.83;;;10.20;96.80;;;;;;5106810;28;20216;-75
2021/10/28 16:52:54;;;;;;;29.02;20.83;;;10.20;97.30;;;;;;5104032;28;20535;-76
2021/10/28 16:55:21;;;;;;;28.70;22.77;;;10.10;97.90;;;;;;5096154;28;20217;-76
2021/10/28 16:57:48;;;;;;;27.55;21.38;;;10.10;98.40;;;;;;5102569;28;20208;-77
2021/10/28 17:00:18;;;;;;;29.08;22.15;;;10.10;98.70;;;;;;5079615;28;20204;-77
2021/10/28 17:02:46;;;;;;;30.00;20.70;;;10.10;99.10;;;;;;5078255;28;20210;-81
2021/10/28 17:05:14;;;;;;;30.35;21.45;;;10.00;99.40;;;;;;5094604;28;20311;-77
2021/10/28 17:07:41;;;;;;;29.70;21.77;;;10.00;99.90;;;;;;5095805;28;20201;-78
2021/10/28 17:10:08;;;;;;;31.42;22.45;;;9.90;99.90;;;;;;5097069;28;20867;-77
2021/10/28 17:12:36;;;;;;;27.67;19.77;;;9.90;99.90;;;;;;5082773;28;20576;-78
2021/10/28 17:15:04;;;;;;;32.90;21.77;;;9.80;99.90;;;;;;5083813;28;20225;-80
2021/10/28 17:17:32;;;;;;;27.63;19.85;;;9.80;99.90;;;;;;5093227;28;20307;-79
2021/10/28 17:20:05;;;;;;;30.95;20.55;;;9.70;99.90;;;;;;5095413;28;20213;-78
2021/10/28 17:22:33;;;;;;;30.00;22.13;;;9.70;99.90;;;;;;5097033;28;20205;-77
2021/10/28 17:25:02;;;;;;;39.92;29.73;;;9.60;99.90;;;;;;5096781;28;20260;-76
2021/10/28 17:27:29;;;;;;;37.15;24.67;;;9.60;99.90;;;;;;5095947;28;20609;-77
2021/10/28 17:29:56;;;;;;;33.78;23.13;;;9.60;99.90;;;;;;5097257;28;20227;-76
2021/10/28 17:32:23;;;;;;;36.38;23.08;;;9.50;99.90;;;;;;5099473;28;20201;-77
2021/10/28 17:34:51;;;;;;;30.70;21.20;;;9.50;99.90;;;;;;5105628;28;20725;-77
2021/10/28 17:37:19;;;;;;;30.48;21.85;;;9.50;99.90;;;;;;5098487;28;20243;-78
2021/10/28 17:39:45;;;;;;;31.63;22.92;;;9.40;99.90;;;;;;5080730;28;20754;-77
2021/10/28 17:42:12;;;;;;;33.03;22.55;;;9.40;99.90;;;;;;5076549;28;20313;-79
2021/10/28 17:44:41;;;;;;;33.50;21.38;;;9.30;99.90;;;;;;5076799;28;20226;-77
2021/10/28 17:47:11;;;;;;;29.83;20.90;;;9.30;99.90;;;;;;5075419;28;20214;-78
2021/10/28 17:49:38;;;;;;;31.02;21.83;;;9.20;99.90;;;;;;5074330;28;20316;-78
2021/10/28 17:52:07;;;;;;;31.10;20.65;;;9.20;99.90;;;;;;5075807;28;20205;-79
2021/10/28 17:54:35;;;;;;;34.95;23.13;;;9.10;99.90;;;;;;5076294;28;20328;-76
2021/10/28 17:57:04;;;;;;;33.30;22.35;;;9.10;99.90;;;;;;5074437;28;20696;-77
2021/10/28 17:59:31;;;;;;;35.03;23.50;;;9.00;99.90;;;;;;5091651;28;20233;-78
2021/10/28 18:01:58;;;;;;;29.83;23.33;;;9.00;99.90;;;;;;5094081;28;20216;-76
2021/10/28 18:04:25;;;;;;;34.55;22.77;;;9.00;99.90;;;;;;5092681;28;20320;-75
2021/10/28 18:06:52;;;;;;;35.15;25.48;;;8.90;99.90;;;;;;5093433;28;20201;-78
2021/10/28 18:09:23;;;;;;;34.55;22.92;;;8.90;99.90;;;;;;5079135;28;20665;-79
2021/10/28 18:11:51;;;;;;;33.97;24.83;;;8.90;99.90;;;;;;5084890;28;20205;-76
2021/10/28 18:14:18;;;;;;;30.73;20.85;;;8.80;99.90;;;;;;5093293;28;20220;-77
2021/10/28 18:16:46;;;;;;;35.38;24.05;;;8.80;99.90;;;;;;5093551;28;20208;-78
2021/10/28 18:19:13;;;;;;;38.17;27.50;;;8.80;99.90;;;;;;5094054;28;20244;-75
2021/10/28 18:21:43;;;;;;;39.53;26.80;;;8.80;99.90;;;;;;5083262;28;20240;-74
2021/10/28 18:24:10;;;;;;;37.85;26.20;;;8.80;99.90;;;;;;5095065;28;20675;-77
2021/10/28 18:26:40;;;;;;;44.85;27.80;;;8.80;99.90;;;;;;5094570;28;20203;-77
2021/10/28 18:29:07;;;;;;;35.45;25.42;;;8.80;99.90;;;;;;5095347;28;20240;-76
2021/10/28 18:31:34;;;;;;;39.72;25.50;;;8.70;99.90;;;;;;5085296;28;20251;-77
2021/10/28 18:34:02;;;;;;;40.35;27.75;;;8.60;99.90;;;;;;5093960;28;20221;-75
2021/10/28 18:36:31;;;;;;;39.63;27.63;;;8.60;99.90;;;;;;5098447;28;20234;-79
2021/10/28 18:38:58;;;;;;;43.92;27.80;;;8.60;99.90;;;;;;5101279;28;20212;-79
2021/10/28 18:41:26;;;;;;;41.20;29.10;;;8.60;99.90;;;;;;5081337;28;20201;-78
2021/10/28 18:43:55;;;;;;;39.15;28.42;;;8.60;99.90;;;;;;5075990;28;20321;-77
2021/10/28 18:46:22;;;;;;;43.17;27.50;;;8.50;99.90;;;;;;5074414;28;20215;-76
2021/10/28 18:48:50;;;;;;;44.50;28.17;;;8.50;99.90;;;;;;5072946;28;20216;-76
2021/10/28 18:51:17;;;;;;;41.38;28.88;;;8.40;99.90;;;;;;5083312;28;20221;-76
2021/10/28 18:53:45;;;;;;;44.00;29.63;;;8.40;99.90;;;;;;5093340;28;20248;-75
2021/10/28 18:56:13;;;;;;;59.33;35.08;;;8.40;99.90;;;;;;5084973;28;20197;-76
2021/10/28 18:58:40;;;;;;;45.45;31.48;;;8.40;99.90;;;;;;5081878;28;20613;-75
2021/10/28 19:01:09;;;;;;;49.67;31.40;;;8.40;99.90;;;;;;5093048;28;20229;-77
2021/10/28 19:03:36;;;;;;;40.83;28.63;;;8.30;99.90;;;;;;5085104;28;20753;-75
2021/10/28 19:06:04;;;;;;;47.03;29.00;;;8.30;99.90;;;;;;5072716;28;20201;-75
2021/10/28 19:08:31;;;;;;;45.90;29.88;;;8.20;99.90;;;;;;5078995;28;20225;-75
2021/10/28 19:10:59;;;;;;;46.22;29.98;;;8.20;99.90;;;;;;5093049;28;20316;-76
2021/10/28 19:13:27;;;;;;;49.47;30.85;;;8.20;99.90;;;;;;5088686;28;20248;-74
2021/10/28 19:15:55;;;;;;;44.72;28.40;;;8.10;99.90;;;;;;5086740;28;20224;-76
2021/10/28 19:18:23;;;;;;;41.90;28.45;;;8.00;99.90;;;;;;5090618;28;20214;-76
2021/10/28 19:20:50;;;;;;;47.22;29.67;;;7.90;99.90;;;;;;5107925;28;20239;-75
2021/10/28 19:23:17;;;;;;;43.55;28.13;;;7.80;99.90;;;;;;5086867;28;20215;-75
2021/10/28 19:25:45;;;;;;;41.55;28.30;;;7.80;99.90;;;;;;5097627;28;20675;-77
2021/10/28 19:28:12;;;;;;;40.05;28.23;;;7.70;99.90;;;;;;5099238;28;20294;-76
2021/10/28 19:30:43;;;;;;;45.58;29.88;;;7.60;99.90;;;;;;5096881;28;20288;-74
2021/10/28 19:33:13;;;;;;;39.50;26.50;;;7.60;99.90;;;;;;5097229;28;20227;-75
2021/10/28 19:35:45;;;;;;;39.25;27.20;;;7.50;99.90;;;;;;5076819;28;20208;-76
2021/10/28 19:38:20;;;;;;;42.97;26.35;;;7.50;99.90;;;;;;5076351;28;20754;-76
2021/10/28 19:40:58;;;;;;;40.67;27.40;;;7.50;99.90;;;;;;5076118;28;20205;-76
2021/10/28 19:46:10;;;;;;;37.70;24.95;;;7.40;99.90;;;;;;5097160;28;20187;-77
2021/10/28 19:48:38;;;;;;;44.85;26.90;;;7.40;99.90;;;;;;5093962;28;20200;-76
2021/10/28 19:51:07;;;;;;;46.55;29.27;;;7.40;99.90;;;;;;5096745;28;20323;-74
2021/10/28 19:53:34;;;;;;;53.40;33.05;;;7.40;99.90;;;;;;5087748;28;20262;-75
2021/10/28 19:56:10;;;;;;;48.13;32.08;;;7.40;99.90;;;;;;5075811;28;20211;-76
2021/10/28 19:58:39;;;;;;;44.85;29.63;;;7.40;99.90;;;;;;5076587;28;20260;-75
2021/10/28 20:01:13;;;;;;;49.72;31.58;;;7.30;99.90;;;;;;5077793;28;20204;-75
2021/10/28 20:03:56;;;;;;;49.35;30.65;;;7.20;99.90;;;;;;5085485;28;20275;-76
2021/10/28 20:06:41;;;;;;;53.08;34.25;;;7.20;99.90;;;;;;5098588;28;20202;-74
2021/10/28 20:14:57;;;;;;;55.55;33.35;;;7.20;99.90;;;;;;5069434;28;20707;-75
2021/10/28 20:20:14;;;;;;;51.78;32.13;;;7.00;99.90;;;;;;5051356;28;20196;-76
2021/10/28 20:22:44;;;;;;;57.03;34.15;;;7.00;99.90;;;;;;5079555;28;20221;-75
2021/10/28 20:25:15;;;;;;;53.20;32.20;;;6.90;99.90;;;;;;5085974;28;20250;-75
2021/10/28 20:27:42;;;;;;;58.70;31.55;;;6.90;99.90;;;;;;5095584;28;20236;-75
2021/10/28 20:30:10;;;;;;;51.63;31.23;;;6.80;99.90;;;;;;5094721;28;20220;-81
2021/10/28 20:32:37;;;;;;;51.47;32.03;;;6.80;99.90;;;;;;5091263;28;20237;-75
2021/10/28 20:35:11;;;;;;;58.05;31.65;;;6.70;99.90;;;;;;5088910;28;20229;-76
2021/10/28 20:37:40;;;;;;;50.60;30.92;;;6.70;99.90;;;;;;5084016;28;20655;-76
2021/10/28 20:40:10;;;;;;;50.33;31.45;;;6.60;99.90;;;;;;5086644;28;20202;-76
2021/10/28 20:42:39;;;;;;;48.30;31.77;;;6.60;99.90;;;;;;5097889;28;20602;-76
2021/10/28 20:45:08;;;;;;;51.38;32.33;;;6.70;99.90;;;;;;5085204;28;20670;-77
2021/10/28 20:47:35;;;;;;;50.78;30.38;;;6.70;99.90;;;;;;5084004;28;20346;-77
2021/10/28 20:50:03;;;;;;;44.55;29.85;;;6.70;99.90;;;;;;5081302;28;20670;-75
2021/10/28 20:52:31;;;;;;;48.05;29.63;;;6.70;99.90;;;;;;5087381;28;20657;-76
2021/10/28 20:54:58;;;;;;;43.75;27.40;;;6.60;99.90;;;;;;5098856;28;20221;-76
2021/10/28 20:57:27;;;;;;;41.72;28.60;;;6.50;99.90;;;;;;5099501;28;20299;-76
2021/10/28 20:59:54;;;;;;;48.78;29.77;;;6.40;99.90;;;;;;5084411;28;20217;-77
2021/10/28 21:02:21;;;;;;;41.67;28.83;;;6.40;99.90;;;;;;5091795;28;20199;-76
2021/10/28 21:04:48;;;;;;;44.40;28.92;;;6.40;99.90;;;;;;5089178;28;20272;-77
2021/10/28 21:07:15;;;;;;;49.88;30.50;;;6.50;99.90;;;;;;5079552;28;20248;-76
2021/10/28 21:09:42;;;;;;;48.53;28.98;;;6.50;99.90;;;;;;5077963;28;20202;-76
2021/10/28 21:12:10;;;;;;;51.65;29.08;;;6.50;99.90;;;;;;5078663;28;20304;-77